Upland, California
Current Conditions -  °F | °C
As of 2:53 AM on Saturday 25 Oct 2014 (Local Time) from KONT Reporting Station
Clear Clear  
Wind Chill: 64°   Ceiling: Unl
Heat Index: 64°   Visibility: 10mi
Dew Point: 41°   Wind: 0mph
Humidity: 43%   Direction: NA
Pressure: 30.02"   Gusts: NA
Location:  34.1°N, 117.65°W
Report Text: KONT 250953Z 00000KT 10SM CLR 18/05 A3002 RMK AO2 SLP148 T01780050
Loading
Personal Weather Stations






























Interactive Weather Map
Tropical Storm Tracking
New forecast layout! Learn more

10-Day Weather Forecast

Advertisements
Track Severe Weather on mobile